createdAt,value
2018-08-04T00:01:15.670Z,64.32
2018-08-04T00:03:44.410Z,64.73
2018-08-04T00:06:14.833Z,64.21
2018-08-04T00:08:44.512Z,64.74
2018-08-04T00:11:14.404Z,64.86
2018-08-04T00:13:44.488Z,64.61
2018-08-04T00:16:14.288Z,64.50
2018-08-04T00:18:44.591Z,64.86
2018-08-04T00:21:14.734Z,64.98
2018-08-04T00:23:43.688Z,64.40
2018-08-04T00:26:12.940Z,64.58
2018-08-04T00:28:41.746Z,64.83
2018-08-04T00:31:10.816Z,65.70
2018-08-04T00:33:39.526Z,65.43
2018-08-04T00:36:08.346Z,65.75
2018-08-04T00:38:37.045Z,66.42
2018-08-04T00:41:05.899Z,66.18
2018-08-04T00:43:34.847Z,66.20
2018-08-04T00:46:04.133Z,66.73
2018-08-04T00:48:32.919Z,67.13
2018-08-04T00:51:01.937Z,66.63
2018-08-04T00:53:30.751Z,67.32
2018-08-04T00:55:59.611Z,67.34
2018-08-04T00:58:28.892Z,67.08
2018-08-04T01:00:57.867Z,67.39
2018-08-04T01:03:27.319Z,67.70
2018-08-04T01:05:56.145Z,67.82
2018-08-04T01:08:24.941Z,67.90
2018-08-04T01:10:53.746Z,67.74
2018-08-04T01:13:22.664Z,67.75
2018-08-04T01:15:51.894Z,67.38
2018-08-04T01:18:21.002Z,67.38
2018-08-04T01:20:49.791Z,67.31
2018-08-04T01:23:18.915Z,67.61
2018-08-04T01:25:48.514Z,67.43
2018-08-04T01:28:17.242Z,67.11
2018-08-04T01:30:46.355Z,67.82
2018-08-04T01:33:15.327Z,67.87
2018-08-04T01:35:44.311Z,69.06
2018-08-04T01:38:13.130Z,69.44
2018-08-04T01:40:42.090Z,69.37
2018-08-04T01:43:10.814Z,68.99
2018-08-04T01:45:39.563Z,69.10
2018-08-04T01:48:08.606Z,69.05
2018-08-04T01:50:37.606Z,69.45
2018-08-04T01:53:06.699Z,70.24
2018-08-04T01:55:35.891Z,70.20
2018-08-04T01:58:04.701Z,70.39
2018-08-04T02:00:33.482Z,70.72
2018-08-04T02:03:02.593Z,70.73
2018-08-04T02:05:31.334Z,70.75
2018-08-04T02:08:00.652Z,71.57
2018-08-04T02:10:29.689Z,71.41
2018-08-04T02:12:58.386Z,71.46
2018-08-04T02:15:27.142Z,71.96
2018-08-04T02:17:56.202Z,71.68
2018-08-04T02:20:24.933Z,71.51
2018-08-04T02:22:53.914Z,72.16
2018-08-04T02:25:22.655Z,71.74
2018-08-04T02:27:51.630Z,71.72
2018-08-04T02:30:21.101Z,71.61
2018-08-04T02:32:49.833Z,72.01
2018-08-04T02:35:18.639Z,71.66
2018-08-04T02:37:47.389Z,72.06
2018-08-04T02:40:16.603Z,72.27
2018-08-04T02:42:45.323Z,72.33
2018-08-04T02:45:14.047Z,72.75
2018-08-04T02:47:42.815Z,72.27
2018-08-04T02:50:11.794Z,72.44
2018-08-04T02:52:40.547Z,72.93
2018-08-04T02:55:09.597Z,73.74
2018-08-04T02:57:38.623Z,73.71
2018-08-04T03:00:07.606Z,73.47
2018-08-04T03:02:36.414Z,73.69
2018-08-04T03:05:11.921Z,74.18
2018-08-04T03:07:40.691Z,74.49
2018-08-04T03:10:10.089Z,74.46
2018-08-04T03:12:38.781Z,74.01
2018-08-04T03:15:08.151Z,73.88
2018-08-04T03:17:37.187Z,74.11
2018-08-04T03:20:07.166Z,73.85
2018-08-04T03:22:36.485Z,74.39
2018-08-04T03:25:05.621Z,74.11
2018-08-04T03:27:34.493Z,74.29
2018-08-04T03:30:03.325Z,74.39
2018-08-04T03:32:32.031Z,74.58
2018-08-04T03:35:00.845Z,74.58
2018-08-04T03:37:30.304Z,74.50
2018-08-04T03:39:59.338Z,75.01
2018-08-04T03:42:28.383Z,74.44
2018-08-04T03:44:57.705Z,74.76
2018-08-04T03:47:26.461Z,75.34
2018-08-04T03:49:55.601Z,75.05
2018-08-04T03:52:24.401Z,75.09
2018-08-04T03:54:53.284Z,75.62
2018-08-04T03:57:22.014Z,75.34
2018-08-04T03:59:50.808Z,76.06
2018-08-04T04:02:19.603Z,76.23
2018-08-04T04:04:49.143Z,76.28
2018-08-04T04:07:18.042Z,75.77
2018-08-04T04:09:46.907Z,75.84
2018-08-04T04:12:16.041Z,76.12
2018-08-04T04:14:44.810Z,75.85
2018-08-04T04:17:13.668Z,76.49
2018-08-04T04:19:42.705Z,76.48
2018-08-04T04:22:11.441Z,76.31
2018-08-04T04:24:40.258Z,76.32
2018-08-04T04:27:09.503Z,75.89
2018-08-04T04:29:38.199Z,75.86
2018-08-04T04:32:08.040Z,75.88
2018-08-04T04:34:36.807Z,76.48
2018-08-04T04:37:06.125Z,76.31
2018-08-04T04:39:35.729Z,76.42
2018-08-04T04:42:04.758Z,75.58
2018-08-04T04:44:33.516Z,75.75
2018-08-04T04:47:02.233Z,75.83
2018-08-04T04:49:31.016Z,76.33
2018-08-04T04:52:00.078Z,76.27
2018-08-04T04:54:28.867Z,76.94
2018-08-04T04:56:57.703Z,77.88
2018-08-04T04:59:26.438Z,77.70
2018-08-04T05:01:55.188Z,78.13
2018-08-04T05:04:24.220Z,77.92
2018-08-04T05:06:53.323Z,77.94
2018-08-04T05:09:22.374Z,78.96
2018-08-04T05:11:51.089Z,79.20
2018-08-04T05:14:20.254Z,79.36
2018-08-04T05:16:48.983Z,80.46
2018-08-04T05:19:18.073Z,80.82
2018-08-04T05:21:47.738Z,81.15
2018-08-04T05:24:17.242Z,80.95
2018-08-04T05:26:45.990Z,80.23
2018-08-04T05:29:14.879Z,80.91
2018-08-04T05:31:44.049Z,80.36
2018-08-04T05:34:13.047Z,80.59
2018-08-04T05:36:41.787Z,80.70
2018-08-04T05:39:12.719Z,80.12
2018-08-04T05:41:42.062Z,79.70
2018-08-04T05:44:10.769Z,79.74
2018-08-04T05:46:40.179Z,79.87
2018-08-04T05:49:09.186Z,79.05
2018-08-04T05:51:38.283Z,79.21
2018-08-04T05:54:07.046Z,78.81
2018-08-04T05:56:35.773Z,78.12
2018-08-04T05:59:04.835Z,78.17
2018-08-04T06:01:33.568Z,77.35
2018-08-04T06:04:02.267Z,77.47
2018-08-04T06:06:31.096Z,76.84
2018-08-04T06:08:59.785Z,76.29
2018-08-04T06:11:29.461Z,76.39
2018-08-04T06:13:58.173Z,75.24
2018-08-04T06:16:27.629Z,74.20
2018-08-04T06:18:56.456Z,73.98
2018-08-04T06:21:25.273Z,72.88
2018-08-04T06:23:54.314Z,71.47
2018-08-04T06:26:23.148Z,71.04
2018-08-04T06:28:52.090Z,71.03
2018-08-04T06:31:20.865Z,70.85
2018-08-04T06:33:49.656Z,69.66
2018-08-04T06:36:18.673Z,69.32
2018-08-04T06:38:48.710Z,69.52
2018-08-04T06:41:17.556Z,68.93
2018-08-04T06:43:46.386Z,68.60
2018-08-04T06:46:15.339Z,67.33
2018-08-04T06:48:44.426Z,66.80
2018-08-04T06:51:13.250Z,66.23
2018-08-04T06:53:42.495Z,65.09
2018-08-04T06:56:11.862Z,64.56
2018-08-04T06:58:41.282Z,63.97
2018-08-04T07:01:10.350Z,64.08
2018-08-04T07:03:39.083Z,63.74
2018-08-04T07:06:08.166Z,62.38
2018-08-04T07:08:37.055Z,61.99
2018-08-04T07:11:06.461Z,62.09
2018-08-04T07:13:35.583Z,61.25
2018-08-04T07:16:04.313Z,60.82
2018-08-04T07:18:33.342Z,59.23
2018-08-04T07:21:02.128Z,58.74
2018-08-04T07:23:31.199Z,59.91
2018-08-04T07:26:00.421Z,58.82
2018-08-04T07:28:29.156Z,58.60
2018-08-04T07:30:57.877Z,58.47
2018-08-04T07:33:27.704Z,57.99
2018-08-04T07:35:56.474Z,57.36
2018-08-04T07:38:25.713Z,56.16
2018-08-04T07:40:54.835Z,57.04
2018-08-04T07:43:23.569Z,56.27
2018-08-04T07:45:52.271Z,54.69
2018-08-04T07:48:20.991Z,55.02
2018-08-04T07:50:50.086Z,54.85
2018-08-04T07:53:19.134Z,54.02
2018-08-04T07:55:47.844Z,52.54
2018-08-04T07:58:16.566Z,52.79
2018-08-04T08:00:45.744Z,52.64
2018-08-04T08:03:14.506Z,51.40
2018-08-04T08:05:43.565Z,51.25
2018-08-04T08:08:12.553Z,50.66
2018-08-04T08:10:41.697Z,50.52
2018-08-04T08:13:10.806Z,50.82
2018-08-04T08:15:39.897Z,49.89
2018-08-04T08:18:08.829Z,49.88
2018-08-04T08:20:37.640Z,50.05
2018-08-04T08:23:06.885Z,49.83
2018-08-04T08:25:36.451Z,49.80
2018-08-04T08:28:05.563Z,50.68
2018-08-04T08:30:34.373Z,49.90
2018-08-04T08:33:03.428Z,49.32
2018-08-04T08:35:35.395Z,48.48
2018-08-04T08:38:04.526Z,48.85
2018-08-04T08:40:33.594Z,48.71
2018-08-04T08:43:02.272Z,48.87
2018-08-04T08:45:31.356Z,48.05
2018-08-04T08:48:00.395Z,47.50
2018-08-04T08:50:29.427Z,46.47
2018-08-04T08:52:58.172Z,47.37
2018-08-04T08:55:26.937Z,46.62
2018-08-04T08:57:55.995Z,46.30
2018-08-04T09:00:24.738Z,46.43
2018-08-04T09:02:53.489Z,46.53
2018-08-04T09:05:22.685Z,47.25
2018-08-04T09:07:53.659Z,47.59
2018-08-04T09:10:22.817Z,46.42
2018-08-04T09:12:51.589Z,46.38
2018-08-04T09:15:20.715Z,46.44
2018-08-04T09:17:49.751Z,46.68
2018-08-04T09:20:18.786Z,45.79
2018-08-04T09:22:47.560Z,46.00
2018-08-04T09:25:16.287Z,45.92
2018-08-04T09:27:45.417Z,45.13
2018-08-04T09:30:14.898Z,44.42
2018-08-04T09:32:45.040Z,44.62
2018-08-04T09:35:14.969Z,43.85
2018-08-04T09:37:44.079Z,44.20
2018-08-04T09:40:14.499Z,43.11
2018-08-04T09:42:44.178Z,42.84
2018-08-04T09:45:14.896Z,42.98
2018-08-04T09:47:43.738Z,41.69
2018-08-04T09:50:14.025Z,42.21
2018-08-04T09:52:43.170Z,42.34
2018-08-04T09:55:12.788Z,41.63
2018-08-04T09:57:42.286Z,42.57
2018-08-04T10:00:17.938Z,42.32
2018-08-04T10:02:47.497Z,41.88
2018-08-04T10:05:16.566Z,41.55
2018-08-04T10:07:45.368Z,40.85
2018-08-04T10:10:14.530Z,39.84
2018-08-04T10:12:43.788Z,40.07
2018-08-04T10:15:12.814Z,40.91
2018-08-04T10:17:45.179Z,39.64
2018-08-04T10:20:14.240Z,38.76
2018-08-04T10:22:43.432Z,39.62
2018-08-04T10:25:12.390Z,39.02
2018-08-04T10:27:41.376Z,38.58
2018-08-04T10:30:11.568Z,39.73
2018-08-04T10:32:40.756Z,39.02
2018-08-04T10:35:09.927Z,37.97
2018-08-04T10:37:39.337Z,38.34
2018-08-04T10:40:08.468Z,37.71
2018-08-04T10:42:37.200Z,38.05
2018-08-04T10:45:07.167Z,36.80
2018-08-04T10:47:36.260Z,36.56
2018-08-04T10:50:05.434Z,36.45
2018-08-04T10:52:34.179Z,36.43
2018-08-04T10:55:03.367Z,37.17
2018-08-04T10:57:32.148Z,36.58
2018-08-04T11:00:01.183Z,36.79
2018-08-04T11:02:30.501Z,36.99
2018-08-04T11:04:59.295Z,36.30
2018-08-04T11:07:28.441Z,36.54
2018-08-04T11:09:57.274Z,36.31
2018-08-04T11:12:26.055Z,35.88
2018-08-04T11:14:55.355Z,36.53
2018-08-04T11:17:24.392Z,36.06
2018-08-04T11:19:53.280Z,36.03
2018-08-04T11:22:22.536Z,36.52
2018-08-04T11:24:51.435Z,36.21
2018-08-04T11:27:20.260Z,35.90
2018-08-04T11:29:49.383Z,34.95
2018-08-04T11:32:18.111Z,35.24
2018-08-04T11:34:46.808Z,35.17
2018-08-04T11:37:15.551Z,34.83
2018-08-04T11:39:44.518Z,35.59
2018-08-04T11:42:13.442Z,35.52
2018-08-04T11:44:42.379Z,35.21
2018-08-04T11:47:11.663Z,35.38
2018-08-04T11:49:40.678Z,36.09
2018-08-04T11:52:09.527Z,36.04
2018-08-04T11:54:38.245Z,35.81
2018-08-04T11:57:07.502Z,34.92
2018-08-04T11:59:42.568Z,35.03
2018-08-04T12:02:11.584Z,36.07
2018-08-04T12:04:40.909Z,36.02
2018-08-04T12:07:09.990Z,35.66
2018-08-04T12:09:38.762Z,36.15
2018-08-04T12:12:07.845Z,36.27
2018-08-04T12:14:36.783Z,36.56
2018-08-04T12:17:05.723Z,37.70
2018-08-04T12:19:34.490Z,36.89
2018-08-04T12:22:03.169Z,38.53
2018-08-04T12:24:32.154Z,37.24
2018-08-04T12:27:00.875Z,37.53
2018-08-04T12:29:29.984Z,37.87
2018-08-04T12:31:59.338Z,37.92
2018-08-04T12:34:28.122Z,38.97
2018-08-04T12:36:57.144Z,39.48
2018-08-04T12:39:25.994Z,38.91
2018-08-04T12:41:55.298Z,39.23
2018-08-04T12:44:24.051Z,38.55
2018-08-04T12:46:53.099Z,38.47
2018-08-04T12:49:22.080Z,38.80
2018-08-04T12:51:50.853Z,39.17
2018-08-04T12:54:19.626Z,38.78
2018-08-04T12:56:48.406Z,37.64
2018-08-04T12:59:17.125Z,37.65
2018-08-04T13:01:45.866Z,37.41
2018-08-04T13:04:14.863Z,37.38
2018-08-04T13:06:43.876Z,38.35
2018-08-04T13:09:12.874Z,38.02
2018-08-04T13:11:41.889Z,39.85
2018-08-04T13:14:10.622Z,39.89
2018-08-04T13:16:39.400Z,40.15
2018-08-04T13:19:08.146Z,39.51
2018-08-04T13:21:37.095Z,40.07
2018-08-04T13:24:05.830Z,39.58
2018-08-04T13:26:34.666Z,40.51
2018-08-04T13:29:03.726Z,40.91
2018-08-04T13:31:33.065Z,41.27
2018-08-04T13:34:01.817Z,42.05
2018-08-04T13:36:30.556Z,41.63
2018-08-04T13:38:59.891Z,40.94
2018-08-04T13:41:28.608Z,41.12
2018-08-04T13:43:57.628Z,40.99
2018-08-04T13:46:26.355Z,40.53
2018-08-04T13:48:55.321Z,41.03
2018-08-04T13:51:24.033Z,40.63
2018-08-04T13:53:53.306Z,40.57
2018-08-04T13:56:22.326Z,40.74
2018-08-04T13:58:51.571Z,41.18
2018-08-04T14:01:20.798Z,41.73
2018-08-04T14:03:49.489Z,42.19
2018-08-04T14:06:18.510Z,40.74
2018-08-04T14:08:47.505Z,41.63
2018-08-04T14:11:16.290Z,40.63
2018-08-04T14:13:44.989Z,40.49
2018-08-04T14:16:13.974Z,40.33
2018-08-04T14:18:43.008Z,40.81
2018-08-04T14:21:11.711Z,40.35
2018-08-04T14:23:40.440Z,40.21
2018-08-04T14:26:09.237Z,40.42
2018-08-04T14:28:37.977Z,39.45
2018-08-04T14:31:07.138Z,40.44
2018-08-04T14:33:35.935Z,41.55
2018-08-04T14:36:04.784Z,41.75
2018-08-04T14:38:33.900Z,42.43
2018-08-04T14:41:03.127Z,42.45
2018-08-04T14:43:31.890Z,43.14
2018-08-04T14:46:00.891Z,42.31
2018-08-04T14:48:30.227Z,42.17
2018-08-04T14:50:59.265Z,42.57
2018-08-04T14:53:28.358Z,43.84
2018-08-04T14:55:57.094Z,44.33
2018-08-04T14:58:26.358Z,43.92
2018-08-04T15:00:55.701Z,45.25
2018-08-04T15:03:24.631Z,44.30
2018-08-04T15:05:54.008Z,45.44
2018-08-04T15:08:22.987Z,45.22
2018-08-04T15:10:51.743Z,45.39
2018-08-04T15:13:20.503Z,46.11
2018-08-04T15:15:49.899Z,46.25
2018-08-04T15:18:19.001Z,47.04
2018-08-04T15:20:48.008Z,46.25
2018-08-04T15:23:17.428Z,45.73
2018-08-04T15:25:46.391Z,46.18
2018-08-04T15:28:15.458Z,46.08
2018-08-04T15:30:44.497Z,47.25
2018-08-04T15:33:13.320Z,47.04
2018-08-04T15:35:41.988Z,47.24
2018-08-04T15:38:11.320Z,47.66
2018-08-04T15:40:40.017Z,48.04
2018-08-04T15:43:09.101Z,47.24
2018-08-04T15:45:37.827Z,48.18
2018-08-04T15:48:06.582Z,48.47
2018-08-04T15:50:35.362Z,47.74
2018-08-04T15:53:04.143Z,47.51
2018-08-04T15:55:33.193Z,48.36
2018-08-04T15:58:01.903Z,48.92
2018-08-04T16:00:31.229Z,48.42
2018-08-04T16:03:00.007Z,49.30
2018-08-04T16:05:28.948Z,48.81
2018-08-04T16:07:57.749Z,49.21
2018-08-04T16:10:26.727Z,49.52
2018-08-04T16:13:02.176Z,49.77
2018-08-04T16:15:30.885Z,49.74
2018-08-04T16:17:59.652Z,49.68
2018-08-04T16:20:28.475Z,50.36
2018-08-04T16:22:57.804Z,50.58
2018-08-04T16:25:27.102Z,50.09
2018-08-04T16:27:55.809Z,50.86
2018-08-04T16:30:25.172Z,51.23
2018-08-04T16:32:54.315Z,52.58
2018-08-04T16:35:23.070Z,52.50
2018-08-04T16:37:52.129Z,51.69
2018-08-04T16:40:20.857Z,51.93
2018-08-04T16:42:49.855Z,52.94
2018-08-04T16:45:18.935Z,53.59
2018-08-04T16:47:47.683Z,53.12
2018-08-04T16:50:16.438Z,52.94
2018-08-04T16:52:45.241Z,53.27
2018-08-04T16:55:14.169Z,52.06
2018-08-04T16:57:43.208Z,53.23
2018-08-04T17:00:11.974Z,52.03
2018-08-04T17:02:40.713Z,52.14
2018-08-04T17:05:10.474Z,52.39
2018-08-04T17:07:39.613Z,53.18
2018-08-04T17:10:08.367Z,53.12
2018-08-04T17:12:37.361Z,53.42
2018-08-04T17:15:07.337Z,53.77
2018-08-04T17:17:36.099Z,53.63
2018-08-04T17:20:05.215Z,54.61
2018-08-04T17:22:34.230Z,55.74
2018-08-04T17:25:03.342Z,56.08
2018-08-04T17:27:32.597Z,55.85
2018-08-04T17:30:02.082Z,55.96
2018-08-04T17:32:31.167Z,56.17
2018-08-04T17:34:59.895Z,56.64
2018-08-04T17:37:28.734Z,57.03
2018-08-04T17:39:57.628Z,57.24
2018-08-04T17:42:26.367Z,56.60
2018-08-04T17:44:55.088Z,57.30
2018-08-04T17:47:24.382Z,57.61
2018-08-04T17:49:53.427Z,57.51
2018-08-04T17:52:22.187Z,56.85
2018-08-04T17:54:51.597Z,56.92
2018-08-04T17:57:20.589Z,57.63
2018-08-04T17:59:49.380Z,58.84
2018-08-04T18:02:18.675Z,58.02
2018-08-04T18:04:47.762Z,58.34
2018-08-04T18:07:16.643Z,59.08
2018-08-04T18:09:45.643Z,58.59
2018-08-04T18:12:14.370Z,59.68
2018-08-04T18:14:43.319Z,59.56
2018-08-04T18:17:12.193Z,60.90
2018-08-04T18:19:40.920Z,61.04
2018-08-04T18:22:09.928Z,61.13
2018-08-04T18:24:38.718Z,61.72
2018-08-04T18:27:07.773Z,61.70
2018-08-04T18:29:36.543Z,62.26
2018-08-04T18:32:05.504Z,62.02
2018-08-04T18:34:34.250Z,62.22
2018-08-04T18:37:03.413Z,62.52
2018-08-04T18:39:32.710Z,62.88
2018-08-04T18:42:01.442Z,62.28
2018-08-04T18:44:31.350Z,62.83
2018-08-04T18:47:00.388Z,62.38
2018-08-04T18:49:29.481Z,62.10
2018-08-04T18:51:58.529Z,62.99
2018-08-04T18:54:27.356Z,62.33
2018-08-04T18:56:56.090Z,62.98
2018-08-04T18:59:24.841Z,62.55
2018-08-04T19:01:53.698Z,62.48
2018-08-04T19:04:22.394Z,62.66
2018-08-04T19:06:54.546Z,62.86
2018-08-04T19:09:23.249Z,63.57
2018-08-04T19:11:51.981Z,63.28
2018-08-04T19:14:21.058Z,63.46
2018-08-04T19:16:49.860Z,63.50
2018-08-04T19:19:18.833Z,64.33
2018-08-04T19:21:48.094Z,63.95
2018-08-04T19:24:16.815Z,64.53
2018-08-04T19:26:45.523Z,64.07
2018-08-04T19:29:14.782Z,65.07
2018-08-04T19:31:43.507Z,64.56
2018-08-04T19:34:12.264Z,65.06
2018-08-04T19:36:41.625Z,65.64
2018-08-04T19:39:11.355Z,66.43
2018-08-04T19:41:40.194Z,66.61
2018-08-04T19:44:09.179Z,66.22
2018-08-04T19:46:38.301Z,67.10
2018-08-04T19:49:07.110Z,67.00
2018-08-04T19:51:35.847Z,67.04
2018-08-04T19:54:04.633Z,67.23
2018-08-04T19:56:33.634Z,67.34
2018-08-04T19:59:02.380Z,67.22
2018-08-04T20:01:31.454Z,67.19
2018-08-04T20:04:00.219Z,67.31
2018-08-04T20:06:29.374Z,67.25
2018-08-04T20:08:58.088Z,67.74
2018-08-04T20:11:27.039Z,67.92
2018-08-04T20:13:55.777Z,67.86
2018-08-04T20:16:24.478Z,67.92
2018-08-04T20:18:54.313Z,68.20
2018-08-04T20:21:23.285Z,68.55
2018-08-04T20:23:52.311Z,68.55
2018-08-04T20:26:21.226Z,68.55
2018-08-04T20:28:49.962Z,69.66
2018-08-04T20:31:18.716Z,69.60
2018-08-04T20:33:47.475Z,70.19
2018-08-04T20:36:17.399Z,70.93
2018-08-04T20:38:46.209Z,71.90
2018-08-04T20:41:14.930Z,71.90
2018-08-04T20:43:44.232Z,72.77
2018-08-04T20:46:12.952Z,73.26
2018-08-04T20:48:43.138Z,72.65
2018-08-04T20:51:12.159Z,72.81
2018-08-04T20:53:40.989Z,72.71
2018-08-04T20:56:10.732Z,73.45
2018-08-04T20:58:39.561Z,73.69
2018-08-04T21:01:19.470Z,73.57
2018-08-04T21:03:48.338Z,73.25
2018-08-04T21:06:17.165Z,72.91
2018-08-04T21:08:45.889Z,73.24
2018-08-04T21:11:14.749Z,73.34
2018-08-04T21:13:43.533Z,74.06
2018-08-04T21:16:12.553Z,73.87
2018-08-04T21:18:41.561Z,73.72
2018-08-04T21:21:10.296Z,74.81
2018-08-04T21:23:39.097Z,74.40
2018-08-04T21:26:07.922Z,75.22
2018-08-04T21:28:49.515Z,75.43
2018-08-04T21:31:18.464Z,76.02
2018-08-04T21:33:47.672Z,76.91
2018-08-04T21:36:16.716Z,76.43
2018-08-04T21:38:45.669Z,77.13
2018-08-04T21:41:14.495Z,77.12
2018-08-04T21:43:43.890Z,77.17
2018-08-04T21:46:12.702Z,77.56
2018-08-04T21:48:41.695Z,77.58
2018-08-04T21:51:10.604Z,78.79
2018-08-04T21:53:39.428Z,78.12
2018-08-04T21:56:08.535Z,78.24
2018-08-04T21:58:38.080Z,78.96
2018-08-04T22:01:13.374Z,79.58
2018-08-04T22:03:44.102Z,79.45
2018-08-04T22:06:13.947Z,79.87
2018-08-04T22:08:53.897Z,80.48
2018-08-04T22:11:22.670Z,80.00
2018-08-04T22:13:51.380Z,80.11
2018-08-04T22:16:20.317Z,81.05
2018-08-04T22:18:49.085Z,81.08
2018-08-04T22:21:17.826Z,81.37
2018-08-04T22:23:47.594Z,81.59
2018-08-04T22:26:18.353Z,82.36
2018-08-04T22:28:47.411Z,82.55
2018-08-04T22:31:16.521Z,83.11
2018-08-04T22:33:45.205Z,82.44
2018-08-04T22:36:14.382Z,82.41
2018-08-04T22:38:43.519Z,82.65
2018-08-04T22:41:13.151Z,82.75
2018-08-04T22:43:42.778Z,83.14
2018-08-04T22:46:16.601Z,82.56
2018-08-04T22:51:19.207Z,83.66
2018-08-04T22:53:48.381Z,83.67
2018-08-04T22:56:17.472Z,83.71
2018-08-04T22:58:46.329Z,85.24
2018-08-04T23:01:15.839Z,85.25
2018-08-04T23:06:14.555Z,86.12
2018-08-04T23:08:43.753Z,85.70
2018-08-04T23:11:13.322Z,85.86
2018-08-04T23:13:42.650Z,85.98
2018-08-04T23:16:11.908Z,86.07
2018-08-04T23:18:41.888Z,85.68
2018-08-04T23:21:11.254Z,85.48
2018-08-04T23:23:40.156Z,85.28
2018-08-04T23:26:09.486Z,85.72
2018-08-04T23:28:38.335Z,85.63
2018-08-04T23:31:07.535Z,86.25
2018-08-04T23:33:36.305Z,86.86
2018-08-04T23:36:05.774Z,86.07
2018-08-04T23:38:35.321Z,86.74
2018-08-04T23:41:04.262Z,86.54
2018-08-04T23:43:33.298Z,86.32
2018-08-04T23:46:03.056Z,86.40
2018-08-04T23:48:32.898Z,86.46
2018-08-04T23:51:02.329Z,87.22
2018-08-04T23:53:31.408Z,87.62
2018-08-04T23:56:00.571Z,87.97
2018-08-04T23:58:30.453Z,88.16
